createdAt,value
2022-10-07T00:00:01.796Z,59.67
2022-10-07T00:02:28.959Z,59.50
2022-10-07T00:04:56.063Z,59.36
2022-10-07T00:07:23.110Z,59.54
2022-10-07T00:09:50.081Z,59.72
2022-10-07T00:12:17.194Z,59.91
2022-10-07T00:14:44.206Z,59.54
2022-10-07T00:17:11.216Z,59.88
2022-10-07T00:19:38.227Z,60.05
2022-10-07T00:22:05.262Z,60.13
2022-10-07T00:24:32.288Z,59.64
2022-10-07T00:26:59.296Z,59.99
2022-10-07T00:29:26.289Z,59.69
2022-10-07T00:31:57.243Z,59.95
2022-10-07T00:34:24.465Z,60.07
2022-10-07T00:36:51.668Z,60.17
2022-10-07T00:39:18.877Z,60.50
2022-10-07T00:41:50.499Z,59.72
2022-10-07T00:44:32.490Z,59.93
2022-10-07T00:47:00.180Z,59.82
2022-10-07T00:49:29.818Z,60.08
2022-10-07T00:51:57.482Z,60.43
2022-10-07T00:54:24.381Z,59.71
2022-10-07T00:56:51.400Z,60.23
2022-10-07T00:59:18.496Z,60.15
2022-10-07T01:01:45.450Z,60.37
2022-10-07T01:04:12.850Z,60.00
2022-10-07T01:06:39.825Z,60.38
2022-10-07T01:09:28.301Z,60.01
2022-10-07T01:12:17.545Z,60.70
2022-10-07T01:15:25.316Z,60.37
2022-10-07T01:18:24.448Z,60.16
2022-10-07T01:21:34.899Z,60.39
2022-10-07T01:24:48.911Z,60.75
2022-10-07T01:27:17.059Z,60.62
2022-10-07T01:29:56.249Z,60.72
2022-10-07T01:32:39.581Z,60.86
2022-10-07T01:35:13.777Z,60.84
2022-10-07T01:37:43.709Z,60.79
2022-10-07T01:40:14.180Z,60.21
2022-10-07T01:42:41.080Z,60.35
2022-10-07T01:45:09.535Z,60.34
2022-10-07T01:47:36.575Z,60.25
2022-10-07T01:50:11.335Z,61.07
2022-10-07T01:53:01.729Z,60.32
2022-10-07T01:55:40.776Z,60.87
2022-10-07T01:58:41.394Z,60.52
2022-10-07T02:01:26.781Z,60.99
2022-10-07T02:04:15.101Z,60.78
2022-10-07T02:07:14.170Z,60.80
2022-10-07T02:10:05.739Z,60.84
2022-10-07T02:12:50.701Z,61.06
2022-10-07T02:15:21.875Z,60.82
2022-10-07T02:17:59.200Z,61.60
2022-10-07T02:20:28.670Z,60.97
2022-10-07T02:22:56.611Z,61.12
2022-10-07T02:25:23.710Z,61.41
2022-10-07T02:27:52.071Z,61.16
2022-10-07T02:30:19.733Z,60.74
2022-10-07T02:32:53.523Z,60.71
2022-10-07T02:35:33.377Z,61.09
2022-10-07T02:38:01.842Z,60.90
2022-10-07T02:40:34.941Z,61.26
2022-10-07T02:43:12.272Z,61.16
2022-10-07T02:46:01.907Z,61.67
2022-10-07T02:48:32.556Z,61.00
2022-10-07T02:51:01.150Z,61.64
2022-10-07T02:53:28.628Z,61.85
2022-10-07T02:55:55.591Z,61.56
2022-10-07T02:58:25.751Z,61.50
2022-10-07T03:00:55.853Z,61.83
2022-10-07T03:03:23.437Z,61.55
2022-10-07T03:05:50.571Z,61.10
2022-10-07T03:08:17.539Z,61.47
2022-10-07T03:10:44.443Z,61.96
2022-10-07T03:13:11.435Z,61.38
2022-10-07T03:15:42.364Z,61.96
2022-10-07T03:18:26.777Z,61.42
2022-10-07T03:20:55.634Z,61.19
2022-10-07T03:23:25.590Z,61.58
2022-10-07T03:25:53.749Z,61.71
2022-10-07T03:28:21.454Z,61.63
2022-10-07T03:30:49.163Z,61.41
2022-10-07T03:33:16.715Z,62.21
2022-10-07T03:35:43.765Z,61.81
2022-10-07T03:38:10.959Z,61.82
2022-10-07T03:40:38.506Z,61.68
2022-10-07T03:43:06.061Z,61.65
2022-10-07T03:45:33.048Z,62.33
2022-10-07T03:48:00.088Z,61.56
2022-10-07T03:50:27.158Z,62.19
2022-10-07T03:52:54.101Z,62.33
2022-10-07T03:55:20.998Z,62.38
2022-10-07T03:57:52.557Z,62.05
2022-10-07T04:00:23.515Z,61.71
2022-10-07T04:02:50.620Z,62.36
2022-10-07T04:05:18.141Z,61.43
2022-10-07T04:07:46.195Z,61.53
2022-10-07T04:10:15.469Z,61.33
2022-10-07T04:12:42.794Z,61.58
2022-10-07T04:15:13.977Z,61.28
2022-10-07T04:17:41.715Z,62.07
2022-10-07T04:20:09.218Z,61.19
2022-10-07T04:22:36.858Z,61.51
2022-10-07T04:25:23.519Z,61.97
2022-10-07T04:27:56.942Z,61.71
2022-10-07T04:30:24.950Z,61.27
2022-10-07T04:32:51.949Z,61.24
2022-10-07T04:35:19.765Z,61.49
2022-10-07T04:37:50.219Z,61.80
2022-10-07T04:40:17.414Z,61.69
2022-10-07T04:43:02.700Z,61.36
2022-10-07T04:45:29.650Z,61.80
2022-10-07T04:47:56.649Z,62.07
2022-10-07T04:50:23.564Z,61.52
2022-10-07T04:52:50.497Z,61.45
2022-10-07T04:55:17.450Z,61.88
2022-10-07T04:57:44.636Z,61.88
2022-10-07T05:00:11.824Z,62.23
2022-10-07T05:02:38.821Z,61.76
2022-10-07T05:05:06.187Z,61.80
2022-10-07T05:07:33.122Z,61.90
2022-10-07T05:10:00.012Z,61.66
2022-10-07T05:12:27.713Z,62.62
2022-10-07T05:14:54.646Z,62.12
2022-10-07T05:17:21.876Z,62.69
2022-10-07T05:19:48.917Z,62.53
2022-10-07T05:22:15.873Z,61.37
2022-10-07T05:24:42.810Z,62.16
2022-10-07T05:27:09.819Z,62.07
2022-10-07T05:29:36.880Z,61.51
2022-10-07T05:32:05.219Z,62.47
2022-10-07T05:34:32.347Z,62.51
2022-10-07T05:36:59.677Z,62.07
2022-10-07T05:39:26.595Z,62.64
2022-10-07T05:41:53.520Z,62.14
2022-10-07T05:44:20.502Z,62.38
2022-10-07T05:46:47.451Z,61.60
2022-10-07T05:49:14.382Z,62.01
2022-10-07T05:51:41.539Z,61.68
2022-10-07T05:54:08.766Z,60.88
2022-10-07T05:56:38.258Z,61.52
2022-10-07T05:59:05.207Z,60.79
2022-10-07T06:01:32.224Z,61.21
2022-10-07T06:03:59.183Z,61.50
2022-10-07T06:06:26.277Z,60.34
2022-10-07T06:08:53.458Z,60.67
2022-10-07T06:11:39.298Z,61.71
2022-10-07T06:14:06.393Z,61.42
2022-10-07T06:16:33.497Z,61.62
2022-10-07T06:19:00.516Z,61.12
2022-10-07T06:21:28.386Z,60.88
2022-10-07T06:23:56.329Z,62.06
2022-10-07T06:26:23.354Z,61.29
2022-10-07T06:28:50.580Z,61.32
2022-10-07T06:31:22.689Z,62.08
2022-10-07T06:33:50.435Z,62.08
2022-10-07T06:36:17.569Z,61.65
2022-10-07T06:38:45.916Z,61.14
2022-10-07T06:41:12.912Z,61.75
2022-10-07T06:43:39.856Z,61.50
2022-10-07T06:46:07.506Z,61.28
2022-10-07T06:48:34.999Z,61.13
2022-10-07T06:51:06.250Z,61.37
2022-10-07T06:53:33.466Z,60.93
2022-10-07T06:56:03.708Z,61.12
2022-10-07T06:58:30.810Z,61.53
2022-10-07T07:00:58.704Z,60.92
2022-10-07T07:03:25.856Z,60.81
2022-10-07T07:05:54.635Z,61.76
2022-10-07T07:08:23.395Z,61.27
2022-10-07T07:10:50.347Z,60.73
2022-10-07T07:13:18.262Z,61.51
2022-10-07T07:15:57.553Z,61.12
2022-10-07T07:18:24.809Z,61.56
2022-10-07T07:20:52.030Z,60.66
2022-10-07T07:23:19.371Z,60.65
2022-10-07T07:25:46.542Z,60.47
2022-10-07T07:28:16.426Z,60.42
2022-10-07T07:30:43.426Z,60.54
2022-10-07T07:33:10.395Z,60.67
2022-10-07T07:35:41.634Z,60.29
2022-10-07T07:38:08.912Z,60.03
2022-10-07T07:40:39.221Z,60.69
2022-10-07T07:43:06.730Z,60.73
2022-10-07T07:45:36.968Z,59.74
2022-10-07T07:48:04.268Z,60.20
2022-10-07T07:50:31.226Z,59.68
2022-10-07T07:53:00.335Z,59.95
2022-10-07T07:55:27.336Z,60.04
2022-10-07T07:57:54.290Z,59.90
2022-10-07T08:00:21.322Z,59.81
2022-10-07T08:02:48.957Z,59.79
2022-10-07T08:05:18.019Z,59.92
2022-10-07T08:07:48.616Z,59.73
2022-10-07T08:10:15.839Z,59.95
2022-10-07T08:12:42.777Z,59.99
2022-10-07T08:15:11.016Z,59.97
2022-10-07T08:17:37.940Z,59.46
2022-10-07T08:20:05.130Z,59.49
2022-10-07T08:22:32.091Z,59.83
2022-10-07T08:25:00.438Z,59.44
2022-10-07T08:27:28.430Z,60.13
2022-10-07T08:29:55.445Z,59.78
2022-10-07T08:32:22.386Z,59.89
2022-10-07T08:34:49.330Z,59.45
2022-10-07T08:37:16.330Z,60.04
2022-10-07T08:39:43.289Z,59.72
2022-10-07T08:42:15.416Z,59.36
2022-10-07T08:44:43.731Z,59.23
2022-10-07T08:47:49.144Z,59.52
2022-10-07T08:50:39.763Z,59.49
2022-10-07T08:53:08.724Z,59.87
2022-10-07T08:55:55.899Z,59.57
2022-10-07T08:58:41.102Z,59.28
2022-10-07T09:01:29.523Z,59.46
2022-10-07T09:04:19.454Z,59.74
2022-10-07T09:06:52.727Z,59.66
2022-10-07T09:09:22.579Z,60.13
2022-10-07T09:11:49.658Z,59.50
2022-10-07T09:14:31.223Z,60.00
2022-10-07T09:17:02.873Z,59.92
2022-10-07T09:19:45.493Z,59.96
2022-10-07T09:22:32.028Z,60.12
2022-10-07T09:25:18.019Z,59.86
2022-10-07T09:27:45.150Z,60.25
2022-10-07T09:30:15.481Z,59.98
2022-10-07T09:32:54.539Z,59.87
2022-10-07T09:35:27.197Z,59.42
2022-10-07T09:38:09.671Z,60.26
2022-10-07T09:40:58.007Z,60.21
2022-10-07T09:43:25.165Z,59.74
2022-10-07T09:45:52.147Z,59.54
2022-10-07T09:48:33.435Z,59.69
2022-10-07T09:51:16.893Z,60.02
2022-10-07T09:54:19.694Z,59.78
2022-10-07T09:56:47.081Z,59.70
2022-10-07T09:59:17.794Z,59.59
2022-10-07T10:01:50.813Z,60.29
2022-10-07T10:04:19.380Z,60.01
2022-10-07T10:06:50.055Z,59.88
2022-10-07T10:09:22.840Z,59.30
2022-10-07T10:12:00.966Z,59.89
2022-10-07T10:14:36.894Z,60.07
2022-10-07T10:17:04.700Z,59.66
2022-10-07T10:19:36.446Z,59.32
2022-10-07T10:22:04.373Z,59.63
2022-10-07T10:24:49.829Z,59.52
2022-10-07T10:27:21.177Z,59.73
2022-10-07T10:29:57.222Z,59.73
2022-10-07T10:32:44.094Z,59.76
2022-10-07T10:35:14.243Z,60.11
2022-10-07T10:37:41.078Z,59.03
2022-10-07T10:40:34.916Z,59.51
2022-10-07T10:43:07.451Z,59.74
2022-10-07T10:46:16.178Z,59.53
2022-10-07T10:48:44.946Z,59.58
2022-10-07T10:51:32.261Z,59.13
2022-10-07T10:54:22.394Z,58.79
2022-10-07T10:56:54.337Z,59.68
2022-10-07T10:59:43.261Z,59.42
2022-10-07T11:02:29.736Z,59.17
2022-10-07T11:05:04.604Z,59.50
2022-10-07T11:07:39.633Z,59.25
2022-10-07T11:10:28.333Z,59.17
2022-10-07T11:12:59.596Z,59.46
2022-10-07T11:15:37.455Z,59.34
2022-10-07T11:18:11.354Z,59.16
2022-10-07T11:20:44.410Z,59.20
2022-10-07T11:23:27.184Z,59.47
2022-10-07T11:26:18.870Z,59.16
2022-10-07T11:28:45.984Z,59.63
2022-10-07T11:31:40.454Z,59.53
2022-10-07T11:34:12.679Z,59.54
2022-10-07T11:36:40.232Z,59.64
2022-10-07T11:39:08.739Z,59.38
2022-10-07T11:41:42.248Z,60.11
2022-10-07T11:44:14.300Z,59.78
2022-10-07T11:46:41.596Z,59.52
2022-10-07T11:49:11.541Z,59.88
2022-10-07T11:51:41.281Z,59.65
2022-10-07T11:54:09.767Z,59.28
2022-10-07T11:56:49.549Z,59.63
2022-10-07T11:59:42.904Z,59.03
2022-10-07T12:02:28.473Z,59.41
2022-10-07T12:04:56.174Z,59.70
2022-10-07T12:07:35.203Z,59.51
2022-10-07T12:10:05.247Z,59.42
2022-10-07T12:12:47.815Z,59.56
2022-10-07T12:15:27.307Z,59.93
2022-10-07T12:18:17.447Z,59.33
2022-10-07T12:20:58.867Z,59.28
2022-10-07T12:23:26.208Z,59.71
2022-10-07T12:26:03.512Z,59.33
2022-10-07T12:28:42.635Z,59.39
2022-10-07T12:31:15.422Z,59.47
2022-10-07T12:33:57.726Z,59.99
2022-10-07T12:36:28.309Z,59.34
2022-10-07T12:38:58.652Z,59.85
2022-10-07T12:41:42.883Z,59.91
2022-10-07T12:44:33.690Z,59.95
2022-10-07T12:47:13.766Z,59.53
2022-10-07T12:49:50.390Z,59.83
2022-10-07T12:52:20.257Z,59.58
2022-10-07T12:54:52.153Z,59.38
2022-10-07T12:57:21.219Z,59.02
2022-10-07T13:00:03.269Z,59.28
2022-10-07T13:02:40.295Z,59.31
2022-10-07T13:05:31.647Z,59.37
2022-10-07T13:08:20.076Z,59.20
2022-10-07T13:10:56.407Z,59.11
2022-10-07T13:13:31.128Z,58.99
2022-10-07T13:16:22.618Z,58.93
2022-10-07T13:19:18.756Z,58.84
2022-10-07T13:22:13.919Z,58.91
2022-10-07T13:24:42.331Z,59.13
2022-10-07T13:27:09.892Z,59.17
2022-10-07T13:29:36.839Z,58.82
2022-10-07T13:32:17.425Z,58.88
2022-10-07T13:34:46.542Z,59.12
2022-10-07T13:37:42.208Z,58.84
2022-10-07T13:40:25.978Z,59.07
2022-10-07T13:42:57.452Z,59.23
2022-10-07T13:45:24.414Z,59.04
2022-10-07T13:47:51.432Z,59.08
2022-10-07T13:50:22.940Z,59.28
2022-10-07T13:52:49.836Z,59.22
2022-10-07T13:55:33.783Z,59.27
2022-10-07T13:58:03.242Z,59.16
2022-10-07T14:00:30.683Z,59.43
2022-10-07T14:02:57.688Z,59.34
2022-10-07T14:05:27.952Z,59.47
2022-10-07T14:07:58.435Z,59.31
2022-10-07T14:10:29.429Z,59.22
2022-10-07T14:13:00.711Z,59.48
2022-10-07T14:15:29.452Z,59.36
2022-10-07T14:17:58.760Z,59.43
2022-10-07T14:20:26.866Z,59.43
2022-10-07T14:22:55.260Z,59.38
2022-10-07T14:25:53.443Z,59.19
2022-10-07T14:28:28.473Z,59.31
2022-10-07T14:31:43.453Z,59.15
2022-10-07T14:34:36.453Z,59.33
2022-10-07T14:37:13.984Z,59.26
2022-10-07T14:39:45.396Z,59.48
2022-10-07T14:42:14.573Z,59.52
2022-10-07T14:44:44.411Z,59.30
2022-10-07T14:47:21.365Z,59.60
2022-10-07T14:49:48.890Z,59.50
2022-10-07T14:52:21.520Z,59.35
2022-10-07T14:54:49.087Z,59.50
2022-10-07T14:57:15.993Z,59.36
2022-10-07T14:59:42.898Z,59.87
2022-10-07T15:02:12.675Z,59.69
2022-10-07T15:04:40.462Z,60.32
2022-10-07T15:07:07.496Z,60.37
2022-10-07T15:09:34.457Z,60.83
2022-10-07T15:12:01.370Z,60.88
2022-10-07T15:14:28.500Z,61.55
2022-10-07T15:16:55.543Z,61.54
2022-10-07T15:19:23.069Z,61.72
2022-10-07T15:21:50.012Z,61.56
2022-10-07T15:24:17.063Z,61.53
2022-10-07T15:26:44.113Z,61.35
2022-10-07T15:29:13.553Z,61.45
2022-10-07T15:31:40.573Z,59.89
2022-10-07T15:34:07.944Z,59.79
2022-10-07T15:36:34.978Z,60.08
2022-10-07T15:39:02.382Z,60.45
2022-10-07T15:41:36.262Z,60.46
2022-10-07T15:44:06.206Z,60.53
2022-10-07T15:46:33.695Z,61.03
2022-10-07T15:49:00.774Z,60.72
2022-10-07T15:51:27.884Z,60.43
2022-10-07T15:53:54.921Z,60.84
2022-10-07T15:56:21.992Z,60.24
2022-10-07T15:58:48.975Z,59.07
2022-10-07T16:01:16.022Z,59.07
2022-10-07T16:03:44.760Z,59.81
2022-10-07T16:06:16.419Z,60.38
2022-10-07T16:08:43.710Z,60.28
2022-10-07T16:11:11.506Z,60.18
2022-10-07T16:13:39.519Z,60.21
2022-10-07T16:16:08.941Z,60.17
2022-10-07T16:18:37.386Z,60.15
2022-10-07T16:21:23.058Z,60.59
2022-10-07T16:23:51.380Z,60.69
2022-10-07T16:26:20.981Z,60.28
2022-10-07T16:29:08.157Z,60.74
2022-10-07T16:31:36.694Z,60.72
2022-10-07T16:34:03.900Z,60.50
2022-10-07T16:36:30.982Z,60.62
2022-10-07T16:38:59.977Z,60.50
2022-10-07T16:41:26.914Z,60.61
2022-10-07T16:43:53.874Z,60.49
2022-10-07T16:46:21.142Z,60.40
2022-10-07T16:48:49.020Z,60.52
2022-10-07T16:51:23.412Z,60.54
2022-10-07T16:53:53.413Z,60.80
2022-10-07T16:56:20.806Z,60.90
2022-10-07T16:58:47.931Z,61.23
2022-10-07T17:01:16.337Z,60.95
2022-10-07T17:03:46.448Z,61.34
2022-10-07T17:06:18.251Z,61.17
2022-10-07T17:08:48.342Z,61.80
2022-10-07T17:11:31.483Z,61.69
2022-10-07T17:14:05.644Z,61.91
2022-10-07T17:16:38.052Z,61.79
2022-10-07T17:19:06.604Z,61.77
2022-10-07T17:21:36.937Z,61.66
2022-10-07T17:24:04.672Z,62.24
2022-10-07T17:26:31.649Z,61.89
2022-10-07T17:29:03.580Z,61.83
2022-10-07T17:31:30.949Z,61.54
2022-10-07T17:33:58.567Z,61.52
2022-10-07T17:36:26.101Z,62.42
2022-10-07T17:38:53.274Z,61.56
2022-10-07T17:41:25.115Z,61.13
2022-10-07T17:43:53.086Z,60.92
2022-10-07T17:46:20.972Z,60.92
2022-10-07T17:48:49.058Z,61.13
2022-10-07T17:51:16.715Z,61.03
2022-10-07T17:53:43.969Z,61.29
2022-10-07T17:56:12.944Z,61.12
2022-10-07T17:58:41.014Z,61.02
2022-10-07T18:01:10.026Z,61.33
2022-10-07T18:03:40.576Z,61.27
2022-10-07T18:06:08.181Z,61.19
2022-10-07T18:08:35.771Z,61.09
2022-10-07T18:11:03.187Z,61.35
2022-10-07T18:13:51.993Z,61.08
2022-10-07T18:16:20.091Z,61.09
2022-10-07T18:18:47.859Z,61.06
2022-10-07T18:21:14.933Z,61.22
2022-10-07T18:23:42.558Z,60.96
2022-10-07T18:26:10.715Z,61.13
2022-10-07T18:28:57.831Z,61.23
2022-10-07T18:31:24.871Z,61.10
2022-10-07T18:33:51.892Z,61.17
2022-10-07T18:36:19.612Z,61.13
2022-10-07T18:38:46.745Z,61.02
2022-10-07T18:41:15.102Z,61.10
2022-10-07T18:43:42.664Z,61.10
2022-10-07T18:46:11.670Z,60.95
2022-10-07T18:48:39.872Z,61.29
2022-10-07T18:51:07.189Z,61.24
2022-10-07T18:53:37.761Z,61.15
2022-10-07T18:56:06.645Z,61.31
2022-10-07T18:58:38.097Z,61.18
2022-10-07T19:01:12.190Z,61.30
2022-10-07T19:03:39.380Z,61.35
2022-10-07T19:06:07.452Z,61.13
2022-10-07T19:08:34.501Z,61.12
2022-10-07T19:11:05.831Z,61.09
2022-10-07T19:13:48.618Z,61.20
2022-10-07T19:16:19.685Z,61.22
2022-10-07T19:18:47.764Z,61.34
2022-10-07T19:21:15.515Z,61.43
2022-10-07T19:23:42.533Z,61.36
2022-10-07T19:26:09.669Z,61.38
2022-10-07T19:28:37.515Z,61.01
2022-10-07T19:31:18.259Z,61.41
2022-10-07T19:33:46.329Z,61.45
2022-10-07T19:36:14.087Z,61.57
2022-10-07T19:38:45.011Z,61.19
2022-10-07T19:41:15.572Z,61.06
2022-10-07T19:43:43.106Z,61.20
2022-10-07T19:46:10.303Z,61.13
2022-10-07T19:48:37.539Z,61.22
2022-10-07T19:51:06.343Z,61.03
2022-10-07T19:53:34.272Z,61.17
2022-10-07T19:56:02.441Z,61.12
2022-10-07T19:58:31.866Z,61.32
2022-10-07T20:01:09.479Z,61.20
2022-10-07T20:03:37.304Z,61.12
2022-10-07T20:06:11.506Z,61.16
2022-10-07T20:08:39.912Z,61.13
2022-10-07T20:11:07.040Z,61.18
2022-10-07T20:13:35.182Z,61.28
2022-10-07T20:16:16.474Z,61.55
2022-10-07T20:18:44.280Z,61.19
2022-10-07T20:21:16.276Z,61.24
2022-10-07T20:23:45.112Z,61.31
2022-10-07T20:26:16.270Z,61.40
2022-10-07T20:28:43.299Z,61.62
2022-10-07T20:31:11.594Z,61.38
2022-10-07T20:33:45.787Z,61.31
2022-10-07T20:36:14.207Z,61.24
2022-10-07T20:38:59.814Z,61.47
2022-10-07T20:41:45.253Z,60.99
2022-10-07T20:44:12.888Z,61.23
2022-10-07T20:46:40.198Z,61.16
2022-10-07T20:49:25.091Z,61.43
2022-10-07T20:51:53.611Z,61.50
2022-10-07T20:54:21.678Z,61.39
2022-10-07T20:56:49.177Z,61.14
2022-10-07T20:59:16.135Z,61.23
2022-10-07T21:01:43.234Z,61.32
2022-10-07T21:04:11.526Z,61.05
2022-10-07T21:06:39.810Z,61.21
2022-10-07T21:09:07.042Z,61.17
2022-10-07T21:11:34.041Z,61.28
2022-10-07T21:14:00.983Z,61.56
2022-10-07T21:16:29.483Z,61.06
2022-10-07T21:18:57.041Z,61.32
2022-10-07T21:21:24.511Z,61.29
2022-10-07T21:23:51.826Z,61.58
2022-10-07T21:26:19.010Z,61.59
2022-10-07T21:28:48.545Z,61.26
2022-10-07T21:31:17.664Z,61.11
2022-10-07T21:33:50.864Z,61.84
2022-10-07T21:36:22.304Z,61.49
2022-10-07T21:38:59.233Z,61.24
2022-10-07T21:41:34.631Z,61.56
2022-10-07T21:44:03.013Z,61.24
2022-10-07T21:46:30.994Z,61.15
2022-10-07T21:48:58.210Z,61.24
2022-10-07T21:51:27.279Z,61.33
2022-10-07T21:53:54.830Z,61.10
2022-10-07T21:56:21.902Z,61.42
2022-10-07T21:58:53.416Z,61.12
2022-10-07T22:01:22.333Z,61.53
2022-10-07T22:03:53.696Z,61.54
2022-10-07T22:06:20.733Z,61.41
2022-10-07T22:08:47.611Z,61.40
2022-10-07T22:11:18.701Z,60.98
2022-10-07T22:13:55.318Z,60.90
2022-10-07T22:16:22.868Z,61.49
2022-10-07T22:18:52.015Z,61.32
2022-10-07T22:21:23.935Z,61.10
2022-10-07T22:23:52.653Z,61.08
2022-10-07T22:26:21.341Z,61.17
2022-10-07T22:28:48.302Z,61.05
2022-10-07T22:31:15.836Z,61.09
2022-10-07T22:33:43.450Z,61.35
2022-10-07T22:36:11.991Z,61.21
2022-10-07T22:38:41.162Z,61.00
2022-10-07T22:41:12.596Z,61.20
2022-10-07T22:43:39.809Z,61.24
2022-10-07T22:46:06.948Z,61.41
2022-10-07T22:48:34.380Z,61.41
2022-10-07T22:51:08.757Z,61.03
2022-10-07T22:53:36.382Z,61.31
2022-10-07T22:56:08.045Z,61.37
2022-10-07T22:58:35.027Z,61.28
2022-10-07T23:01:05.728Z,61.11
2022-10-07T23:03:33.012Z,60.95
2022-10-07T23:06:00.442Z,61.40
2022-10-07T23:08:27.472Z,61.13
2022-10-07T23:10:57.996Z,60.78
2022-10-07T23:13:27.990Z,61.18
2022-10-07T23:16:04.683Z,61.23
2022-10-07T23:18:32.348Z,61.45
2022-10-07T23:20:59.979Z,61.41
2022-10-07T23:23:27.473Z,61.15
2022-10-07T23:25:54.459Z,60.98
2022-10-07T23:28:22.293Z,61.46
2022-10-07T23:30:49.497Z,61.31
2022-10-07T23:33:16.895Z,60.98
2022-10-07T23:35:43.872Z,61.09
2022-10-07T23:38:10.835Z,61.19
2022-10-07T23:40:37.795Z,61.11
2022-10-07T23:43:04.722Z,61.32
2022-10-07T23:45:33.406Z,61.13
2022-10-07T23:48:00.544Z,61.13
2022-10-07T23:50:28.060Z,61.06
2022-10-07T23:52:55.125Z,60.85
2022-10-07T23:55:22.120Z,60.91
2022-10-07T23:57:49.395Z,61.18
